Time;durP1;ratioP1;P1;durP2;ratioP2;P2;SDS_P1;SDS_P2;PMS_P1;PMS_P2;Temp;Humidity;BMP_temperature;BMP_pressure;BME280_temperature;BME280_humidity;BME280_pressure;Samples;Min_cycle;Max_cycle;Signal;HPM_P1;HPM_P2
2023/09/08 00:02:25;;;;;;;6.25;4.63;;;;;;;27.62;47.88;101784.44;4985067;28;20047;-35
2023/09/08 00:04:52;;;;;;;5.47;4.38;;;;;;;27.60;48.16;101783.78;4982648;28;20135;-35
2023/09/08 00:07:19;;;;;;;5.63;3.95;;;;;;;27.56;48.25;101779.75;4987404;28;20050;-35
2023/09/08 00:09:46;;;;;;;6.05;4.90;;;;;;;27.55;47.81;101780.81;4986599;28;20057;-35
2023/09/08 00:12:13;;;;;;;5.60;4.13;;;;;;;27.54;47.89;101779.97;4989983;28;20054;-35
2023/09/08 00:14:40;;;;;;;5.88;4.65;;;;;;;27.51;48.18;101779.50;4993567;28;20307;-35
2023/09/08 00:17:06;;;;;;;7.43;4.72;;;;;;;27.51;47.84;101780.34;4989154;28;20124;-35
2023/09/08 00:19:33;;;;;;;4.70;3.92;;;;;;;27.47;48.66;101773.59;4988671;28;20050;-36
2023/09/08 00:22:00;;;;;;;5.05;4.03;;;;;;;27.47;48.16;101778.22;4988226;28;20172;-36
2023/09/08 00:24:27;;;;;;;6.10;4.13;;;;;;;27.44;48.73;101775.88;4989169;28;20066;-35
2023/09/08 00:26:54;;;;;;;5.18;4.20;;;;;;;27.44;48.37;101778.59;4986803;28;20315;-36
2023/09/08 00:29:20;;;;;;;7.05;3.85;;;;;;;27.42;48.20;101786.09;4986824;28;20141;-36
2023/09/08 00:31:47;;;;;;;6.10;4.70;;;;;;;27.41;47.96;101781.69;4989872;28;20141;-35
2023/09/08 00:34:13;;;;;;;6.35;4.50;;;;;;;27.39;48.56;101787.34;4991155;28;20436;-36
2023/09/08 00:36:40;;;;;;;5.25;4.38;;;;;;;27.38;48.18;101784.78;4989450;28;20054;-36
2023/09/08 00:39:06;;;;;;;5.55;4.10;;;;;;;27.35;48.47;101783.31;4984421;28;20390;-35
2023/09/08 00:41:33;;;;;;;5.28;4.20;;;;;;;27.35;48.64;101782.47;4989520;28;20133;-35
2023/09/08 00:44:00;;;;;;;5.43;4.38;;;;;;;27.33;48.17;101785.38;4991357;28;20092;-35
2023/09/08 00:46:27;;;;;;;4.85;3.95;;;;;;;27.33;48.52;101779.94;4985846;28;20138;-35
2023/09/08 00:48:55;;;;;;;4.75;4.07;;;;;;;27.33;48.28;101779.94;4987304;28;20205;-36
2023/09/08 00:51:22;;;;;;;5.28;3.95;;;;;;;27.31;48.31;101779.31;5017926;28;20054;-35
2023/09/08 00:53:49;;;;;;;5.35;4.07;;;;;;;27.30;48.28;101785.78;4979962;28;20042;-35
2023/09/08 00:56:16;;;;;;;5.07;4.10;;;;;;;27.30;48.81;101788.50;4983986;28;20045;-35
2023/09/08 00:58:43;;;;;;;5.07;4.28;;;;;;;27.28;48.82;101782.41;4985573;28;20050;-35
2023/09/08 01:01:10;;;;;;;5.22;4.50;;;;;;;27.27;48.76;101776.13;4982891;28;20402;-35
2023/09/08 01:03:36;;;;;;;5.13;3.58;;;;;;;27.28;48.52;101779.69;4985799;28;20051;-35
2023/09/08 01:06:04;;;;;;;3.75;3.33;;;;;;;27.27;48.74;101780.72;4980935;28;20050;-35
2023/09/08 01:08:30;;;;;;;5.10;4.05;;;;;;;27.26;48.52;101779.88;4984780;28;20337;-35
2023/09/08 01:10:57;;;;;;;4.82;3.70;;;;;;;27.27;48.33;101780.72;4981931;28;20050;-35
2023/09/08 01:13:24;;;;;;;5.57;4.25;;;;;;;27.25;48.80;101782.78;4986853;28;20456;-35
2023/09/08 01:15:51;;;;;;;4.93;3.80;;;;;;;27.24;48.23;101781.94;4986739;28;20386;-36
2023/09/08 01:18:17;;;;;;;4.88;3.67;;;;;;;27.24;48.91;101789.25;4986077;28;20046;-35
2023/09/08 01:21:11;;;;;;;5.28;3.95;;;;;;;27.22;48.49;101788.63;4983251;28;20046;-35
2023/09/08 01:24:16;;;;;;;4.70;3.83;;;;;;;27.23;48.32;101779.41;4983062;28;20426;-35
2023/09/08 01:26:43;;;;;;;4.82;3.80;;;;;;;27.24;48.73;101784.66;4984290;28;20043;-35
2023/09/08 01:29:11;;;;;;;4.40;3.80;;;;;;;27.22;48.37;101784.03;4986694;28;20363;-35
2023/09/08 01:31:38;;;;;;;5.05;3.85;;;;;;;27.22;48.66;101778.59;4983854;28;20128;-36
2023/09/08 01:34:06;;;;;;;6.32;4.15;;;;;;;27.22;48.42;101777.75;4982860;28;20173;-35
2023/09/08 01:36:34;;;;;;;4.63;3.80;;;;;;;27.23;48.48;101780.25;4981810;28;20104;-35
2023/09/08 01:39:02;;;;;;;5.32;3.85;;;;;;;27.22;48.53;101784.03;4984328;28;20188;-35
2023/09/08 01:41:31;;;;;;;5.75;4.20;;;;;;;27.23;48.42;101782.16;4980337;28;20050;-35
2023/09/08 01:43:59;;;;;;;4.22;3.47;;;;;;;27.22;48.42;101786.75;4980554;28;20449;-35
2023/09/08 01:46:25;;;;;;;4.93;3.72;;;;;;;27.23;48.47;101785.69;4980082;28;20426;-36
2023/09/08 01:48:52;;;;;;;5.97;3.75;;;;;;;27.21;48.39;101776.88;4985165;28;20050;-36
2023/09/08 01:51:18;;;;;;;4.50;3.83;;;;;;;27.22;48.42;101778.59;4985725;28;20046;-36
2023/09/08 01:53:45;;;;;;;4.78;3.85;;;;;;;27.21;48.67;101781.47;4983547;28;20157;-35
2023/09/08 01:56:12;;;;;;;5.43;4.07;;;;;;;27.21;48.26;101778.75;4979623;28;20426;-35
2023/09/08 01:58:38;;;;;;;4.38;3.63;;;;;;;27.20;48.55;101779.78;4981280;28;20086;-35
2023/09/08 02:01:05;;;;;;;6.13;3.88;;;;;;;27.20;48.65;101780.63;4980747;28;20055;-35
2023/09/08 02:03:33;;;;;;;4.93;4.03;;;;;;;27.18;48.47;101774.56;4982547;28;20054;-35
2023/09/08 02:05:59;;;;;;;5.43;3.35;;;;;;;27.18;48.57;101777.28;4979859;28;20406;-35
2023/09/08 02:08:26;;;;;;;4.65;3.75;;;;;;;27.17;48.77;101770.13;4985412;28;20046;-35
2023/09/08 02:10:53;;;;;;;5.70;3.83;;;;;;;27.17;48.52;101775.56;4984270;28;20046;-36
2023/09/08 02:13:19;;;;;;;4.00;3.40;;;;;;;27.16;48.32;101767.59;4984075;28;20058;-35
2023/09/08 02:15:46;;;;;;;4.97;3.90;;;;;;;27.14;48.46;101770.53;4981650;28;20050;-35
2023/09/08 02:18:13;;;;;;;4.45;3.60;;;;;;;27.14;48.10;101765.09;4985249;28;20069;-35
2023/09/08 02:20:39;;;;;;;5.10;3.83;;;;;;;27.13;48.33;101768.81;4979784;28;20059;-35
2023/09/08 02:23:07;;;;;;;3.40;3.03;;;;;;;27.12;48.43;101764.44;4983129;28;20050;-35
2023/09/08 02:25:34;;;;;;;4.43;3.35;;;;;;;27.10;48.27;101763.78;4984139;28;20148;-35
2023/09/08 02:28:01;;;;;;;3.95;3.08;;;;;;;27.10;48.79;101766.50;4983781;28;20489;-34
2023/09/08 02:30:27;;;;;;;4.45;3.53;;;;;;;27.07;48.46;101762.25;4983211;28;20100;-35
2023/09/08 02:32:55;;;;;;;4.45;3.47;;;;;;;27.07;48.73;101756.81;4986014;28;20062;-34
2023/09/08 02:35:23;;;;;;;4.75;3.40;;;;;;;27.06;48.46;101763.28;4985688;28;20154;-34
2023/09/08 02:37:50;;;;;;;4.97;3.53;;;;;;;27.06;48.61;101759.72;4985083;28;20072;-34
2023/09/08 02:40:17;;;;;;;5.40;3.80;;;;;;;27.04;48.66;101765.34;4986721;28;20134;-34
2023/09/08 02:42:44;;;;;;;3.65;3.28;;;;;;;27.03;48.81;101760.09;4987126;28;20446;-35
2023/09/08 02:45:10;;;;;;;3.97;3.58;;;;;;;27.02;48.39;101770.16;4985880;28;20042;-35
2023/09/08 02:47:37;;;;;;;4.80;3.50;;;;;;;27.01;48.68;101773.88;4986334;28;20062;-35
2023/09/08 02:50:04;;;;;;;4.85;3.70;;;;;;;27.01;48.48;101771.16;4989614;28;20062;-35
2023/09/08 02:52:31;;;;;;;4.60;3.47;;;;;;;26.99;48.92;101773.25;4992101;28;20426;-35
2023/09/08 02:54:57;;;;;;;4.07;2.88;;;;;;;26.98;48.56;101768.84;4990332;28;20047;-35
2023/09/08 02:57:24;;;;;;;3.40;3.00;;;;;;;26.97;48.42;101769.03;4990346;28;20117;-35
2023/09/08 02:59:51;;;;;;;4.50;3.45;;;;;;;26.97;48.42;101780.75;4992364;28;20431;-35
2023/09/08 03:02:18;;;;;;;5.40;3.80;;;;;;;26.96;49.04;101767.34;4991425;28;20073;-35
2023/09/08 03:04:44;;;;;;;4.15;3.40;;;;;;;26.95;48.88;101774.66;4986521;28;20050;-35
2023/09/08 03:07:11;;;;;;;4.00;3.15;;;;;;;26.94;48.50;101777.59;4986997;28;20057;-35
2023/09/08 03:09:38;;;;;;;3.60;2.92;;;;;;;26.93;48.81;101770.44;4987688;28;20450;-35
2023/09/08 03:12:04;;;;;;;4.53;3.50;;;;;;;26.92;48.77;101769.59;4986406;28;20137;-35
2023/09/08 03:14:31;;;;;;;3.63;3.03;;;;;;;26.91;48.82;101761.63;4986574;28;20050;-34
2023/09/08 03:16:57;;;;;;;3.90;3.20;;;;;;;26.91;48.80;101764.34;4986295;28;20066;-35
2023/09/08 03:19:24;;;;;;;4.07;3.42;;;;;;;26.90;49.03;101763.50;4985323;28;20077;-34
2023/09/08 03:21:51;;;;;;;3.92;3.13;;;;;;;26.88;48.55;101757.41;4988817;28;20050;-34
2023/09/08 03:24:17;;;;;;;3.83;3.33;;;;;;;26.88;48.84;101753.84;4985809;28;20054;-34
2023/09/08 03:26:44;;;;;;;3.97;3.22;;;;;;;26.88;48.79;101753.84;4987333;28;20042;-34
2023/09/08 03:29:10;;;;;;;4.82;3.25;;;;;;;26.85;48.87;101754.22;4986850;28;20054;-34
2023/09/08 03:31:37;;;;;;;5.07;3.63;;;;;;;26.85;48.65;101757.78;4986310;28;20200;-34
2023/09/08 03:34:04;;;;;;;4.35;3.50;;;;;;;26.83;48.96;101752.53;4986855;28;20054;-34
2023/09/08 03:36:31;;;;;;;3.97;3.47;;;;;;;26.82;48.99;101750.88;4986897;28;20153;-36
2023/09/08 03:38:58;;;;;;;3.67;3.05;;;;;;;26.82;48.92;101758.19;4982351;28;20047;-34
2023/09/08 03:41:25;;;;;;;4.72;3.63;;;;;;;26.81;48.84;101753.75;4984791;28;20110;-34
2023/09/08 03:43:51;;;;;;;4.45;3.63;;;;;;;26.80;49.08;101743.91;4985983;28;20141;-34
2023/09/08 03:46:18;;;;;;;3.63;3.17;;;;;;;26.78;48.67;101754.16;4984637;28;20369;-34
2023/09/08 03:48:45;;;;;;;3.70;3.10;;;;;;;26.77;48.84;101745.13;4988604;28;20053;-34
2023/09/08 03:51:11;;;;;;;4.38;3.05;;;;;;;26.77;48.97;101749.72;4986383;28;20137;-34
2023/09/08 03:53:38;;;;;;;3.92;3.10;;;;;;;26.76;49.19;101745.34;4989385;28;20050;-34
2023/09/08 03:56:05;;;;;;;5.10;3.33;;;;;;;26.75;49.06;101746.38;4984454;28;20050;-34
2023/09/08 03:58:31;;;;;;;5.32;3.45;;;;;;;26.74;49.13;101744.69;4990432;28;20120;-34
2023/09/08 04:00:58;;;;;;;6.07;2.97;;;;;;;26.74;49.06;101747.41;5016750;28;20161;-34
2023/09/08 04:03:25;;;;;;;5.20;3.22;;;;;;;26.72;49.15;101744.03;4984488;28;20061;-34
2023/09/08 04:05:51;;;;;;;5.30;3.60;;;;;;;26.71;48.98;101743.19;4986638;28;20042;-35
2023/09/08 04:08:18;;;;;;;4.15;3.28;;;;;;;26.70;48.85;101746.94;4985934;28;20050;-34
2023/09/08 04:10:44;;;;;;;3.72;3.30;;;;;;;26.69;48.95;101749.84;4984718;28;20522;-34
2023/09/08 04:13:11;;;;;;;4.53;3.42;;;;;;;26.68;49.26;101748.16;4984856;28;20372;-34
2023/09/08 04:15:38;;;;;;;3.65;2.90;;;;;;;26.67;49.00;101736.44;4987287;28;20050;-34
2023/09/08 04:18:04;;;;;;;3.85;3.10;;;;;;;26.67;49.15;101738.31;4988568;28;20122;-34
2023/09/08 04:20:31;;;;;;;5.05;3.20;;;;;;;26.66;49.27;101739.34;4992662;28;20339;-34
2023/09/08 04:22:58;;;;;;;3.45;3.10;;;;;;;26.64;49.06;101742.25;4987434;28;20121;-34
2023/09/08 04:25:24;;;;;;;4.47;3.13;;;;;;;26.64;49.13;101741.41;4991942;28;20054;-34
2023/09/08 04:27:51;;;;;;;4.25;3.33;;;;;;;26.63;49.01;101739.72;4987768;28;20046;-34
2023/09/08 04:30:18;;;;;;;4.95;3.15;;;;;;;26.63;49.25;101745.16;4985984;28;20462;-34
2023/09/08 04:32:45;;;;;;;4.53;3.25;;;;;;;26.61;49.12;101744.50;4984897;28;20061;-34
2023/09/08 04:35:12;;;;;;;4.28;3.25;;;;;;;26.60;49.34;101737.38;4987046;28;20150;-35
2023/09/08 04:37:39;;;;;;;4.72;3.00;;;;;;;26.59;49.19;101739.25;4988007;28;20429;-34
2023/09/08 04:40:07;;;;;;;3.70;3.30;;;;;;;26.59;49.23;101739.25;4983965;28;20388;-34
2023/09/08 04:42:33;;;;;;;5.78;3.15;;;;;;;26.57;49.12;101735.88;4983879;28;20050;-35
2023/09/08 04:45:00;;;;;;;4.03;3.13;;;;;;;26.56;49.42;101734.19;4990125;28;20090;-34
2023/09/08 04:47:27;;;;;;;4.57;3.53;;;;;;;26.55;49.23;101744.22;4986804;28;20086;-35
2023/09/08 04:49:53;;;;;;;5.38;2.80;;;;;;;26.55;49.45;101746.94;4983568;28;20137;-35
2023/09/08 04:52:20;;;;;;;4.95;3.50;;;;;;;26.54;49.27;101748.00;4981281;28;20064;-35
2023/09/08 04:54:47;;;;;;;4.75;3.83;;;;;;;26.53;49.30;101740.88;4988495;28;20057;-34
2023/09/08 04:57:13;;;;;;;6.05;3.83;;;;;;;26.53;49.32;101748.16;4990562;28;20050;-35
2023/09/08 04:59:49;;;;;;;6.43;4.45;;;;;;;26.51;49.12;101747.50;4993151;28;20053;-35
2023/09/08 05:02:18;;;;;;;7.15;4.90;;;;;;;26.50;49.45;101746.69;4985712;28;20050;-35
2023/09/08 05:04:45;;;;;;;6.13;4.53;;;;;;;26.50;49.25;101749.41;4983613;28;20664;-34
2023/09/08 05:07:13;;;;;;;7.40;4.50;;;;;;;26.49;49.46;101750.44;4984397;28;20133;-35
2023/09/08 05:09:39;;;;;;;6.38;4.65;;;;;;;26.49;49.38;101750.44;4984887;28;20076;-35
2023/09/08 05:12:06;;;;;;;7.22;4.68;;;;;;;26.48;49.35;101745.16;4983433;28;21830;-35
2023/09/08 05:14:33;;;;;;;9.70;5.40;;;;;;;26.48;49.40;101753.31;4982829;28;20320;-34
2023/09/08 05:16:59;;;;;;;6.30;4.72;;;;;;;26.48;49.37;101750.59;4982637;28;20157;-35
2023/09/08 05:19:26;;;;;;;9.75;5.68;;;;;;;26.48;49.15;101747.88;4980201;28;20046;-34
2023/09/08 05:21:54;;;;;;;17.90;11.50;;;;;;;26.48;48.86;101751.44;4986351;28;20116;-35
2023/09/08 05:24:21;;;;;;;25.30;14.57;;;;;;;26.49;48.97;101752.28;4981580;28;20434;-35
2023/09/08 05:26:48;;;;;;;23.63;15.02;;;;;;;26.49;48.74;101752.28;4978710;28;20051;-35
2023/09/08 05:29:14;;;;;;;24.10;16.05;;;;;;;26.48;48.86;101756.88;4982973;28;20050;-34
2023/09/08 05:31:42;;;;;;;24.15;15.63;;;;;;;26.48;48.92;101758.75;4976841;28;20049;-35
2023/09/08 05:34:08;;;;;;;22.48;15.43;;;;;;;26.48;48.70;101754.16;4991203;28;20061;-35
2023/09/08 05:36:39;;;;;;;23.10;15.25;;;;;;;26.49;48.56;101755.88;4981337;28;20085;-35
2023/09/08 05:39:06;;;;;;;20.83;14.32;;;;;;;26.50;48.63;101754.84;4980285;28;20097;-35
2023/09/08 05:41:33;;;;;;;24.48;16.23;;;;;;;26.50;48.56;101757.56;4984812;28;20184;-34
2023/09/08 05:44:00;;;;;;;24.02;15.75;;;;;;;26.51;48.41;101761.94;4989370;28;20054;-35
2023/09/08 05:46:27;;;;;;;26.52;14.82;;;;;;;26.52;48.59;101755.47;4984313;28;20054;-34
2023/09/08 05:48:54;;;;;;;24.27;16.20;;;;;;;26.54;48.45;101755.31;4985160;28;20073;-36
2023/09/08 05:51:20;;;;;;;22.40;14.60;;;;;;;26.54;48.59;101761.59;4987434;28;20350;-35
2023/09/08 05:53:47;;;;;;;23.70;14.35;;;;;;;26.55;48.64;101760.53;4985951;28;20105;-34
2023/09/08 05:56:14;;;;;;;23.52;14.88;;;;;;;26.56;48.49;101767.66;4987642;28;20045;-34
2023/09/08 05:58:40;;;;;;;24.40;14.63;;;;;;;26.56;48.34;101770.38;5022771;28;20051;-35
2023/09/08 06:01:07;;;;;;;23.63;13.55;;;;;;;26.58;48.30;101772.94;4994118;28;20399;-35
2023/09/08 06:03:34;;;;;;;19.70;13.00;;;;;;;26.58;48.26;101768.34;4992125;28;20078;-34
2023/09/08 06:06:00;;;;;;;24.23;12.85;;;;;;;26.60;48.24;101770.00;4986807;28;20111;-34
2023/09/08 06:08:27;;;;;;;24.88;12.95;;;;;;;26.61;48.36;101768.97;4991727;28;20097;-35
2023/09/08 06:10:54;;;;;;;28.35;12.98;;;;;;;26.61;48.36;101769.81;4990650;28;20121;-34
2023/09/08 06:13:20;;;;;;;23.30;11.95;;;;;;;26.63;48.63;101777.81;4994188;28;20054;-34
2023/09/08 06:15:47;;;;;;;22.13;11.27;;;;;;;26.65;48.49;101778.44;4992462;28;20449;-35
2023/09/08 06:18:13;;;;;;;24.80;12.13;;;;;;;26.65;48.29;101779.28;4993104;28;20104;-34
2023/09/08 06:20:44;;;;;;;22.58;11.60;;;;;;;26.66;48.28;101782.88;4991493;28;20051;-34
2023/09/08 06:23:11;;;;;;;18.35;10.50;;;;;;;26.67;48.11;101785.38;4987298;28;20046;-34
2023/09/08 06:25:38;;;;;;;15.93;10.50;;;;;;;26.69;48.27;101793.34;4995917;28;20715;-34
2023/09/08 06:28:04;;;;;;;19.50;10.95;;;;;;;26.70;48.20;101795.06;4993322;28;20046;-34
2023/09/08 06:30:31;;;;;;;17.13;9.38;;;;;;;26.72;48.23;101792.97;4989261;28;20481;-35
2023/09/08 06:32:57;;;;;;;18.00;10.55;;;;;;;26.73;48.06;101789.22;5017623;28;20780;-34
2023/09/08 06:35:26;;;;;;;14.75;9.00;;;;;;;26.75;48.06;101792.59;4985936;28;20138;-34
2023/09/08 06:37:53;;;;;;;19.85;10.32;;;;;;;26.76;47.77;101799.72;4995625;28;20441;-34
2023/09/08 06:40:19;;;;;;;12.65;8.85;;;;;;;26.77;47.92;101793.25;4992096;28;20049;-34
2023/09/08 06:42:46;;;;;;;16.05;8.95;;;;;;;26.78;47.85;101792.25;4990528;28;20480;-34
2023/09/08 06:45:13;;;;;;;14.05;8.63;;;;;;;26.79;47.96;101800.19;4989544;28;20089;-34
2023/09/08 06:47:40;;;;;;;14.98;9.30;;;;;;;26.80;47.84;101790.16;4993420;28;20054;-34
2023/09/08 06:50:07;;;;;;;18.40;8.48;;;;;;;26.81;47.84;101792.72;4985935;28;20298;-34
2023/09/08 06:52:33;;;;;;;12.88;8.13;;;;;;;26.81;47.43;101797.28;4979250;28;20056;-34
2023/09/08 06:55:00;;;;;;;13.77;8.27;;;;;;;26.81;47.59;101795.44;4984195;28;20067;-35
2023/09/08 06:57:26;;;;;;;11.18;7.90;;;;;;;26.83;47.38;101800.66;4989449;28;20049;-35
2023/09/08 06:59:53;;;;;;;12.95;9.20;;;;;;;26.83;48.00;101801.50;4982331;28;20042;-35
2023/09/08 07:02:20;;;;;;;13.32;9.68;;;;;;;26.83;47.58;101798.78;4979423;28;20470;-34
2023/09/08 07:04:47;;;;;;;13.98;9.40;;;;;;;26.83;47.81;101797.94;4985396;28;20061;-35
2023/09/08 07:07:14;;;;;;;18.25;9.68;;;;;;;26.85;47.52;101798.59;4987164;28;20101;-35
2023/09/08 07:09:40;;;;;;;16.02;9.43;;;;;;;26.85;47.52;101795.88;4982828;28;20086;-35
2023/09/08 07:12:07;;;;;;;16.42;10.60;;;;;;;26.88;47.40;101795.50;4981028;28;20086;-35
2023/09/08 07:14:34;;;;;;;15.93;9.52;;;;;;;26.87;47.09;101799.25;4982125;28;20092;-34
2023/09/08 07:17:00;;;;;;;17.73;10.18;;;;;;;26.87;47.39;101798.41;4983012;28;20053;-34
2023/09/08 07:19:27;;;;;;;20.80;10.02;;;;;;;26.87;47.63;101793.81;4978485;28;20067;-34
2023/09/08 07:21:54;;;;;;;22.77;11.52;;;;;;;26.89;47.21;101796.34;4984915;28;20320;-34
2023/09/08 07:24:21;;;;;;;24.45;12.02;;;;;;;26.88;47.52;101797.38;4980981;28;20051;-34
2023/09/08 07:26:48;;;;;;;22.08;11.60;;;;;;;26.89;47.33;101799.91;4983889;28;20113;-34
2023/09/08 07:29:14;;;;;;;21.35;12.02;;;;;;;26.90;47.40;101803.50;4984927;28;20449;-34
2023/09/08 07:31:41;;;;;;;19.33;11.65;;;;;;;26.89;47.16;101799.91;4981629;28;20387;-34
2023/09/08 07:34:08;;;;;;;21.55;11.40;;;;;;;26.90;47.70;101800.78;4977700;28;20061;-34
2023/09/08 07:36:36;;;;;;;19.80;11.55;;;;;;;26.89;47.61;101799.91;4984947;28;20048;-34
2023/09/08 07:39:03;;;;;;;17.42;11.45;;;;;;;26.89;47.61;101804.50;4989247;28;20160;-34
2023/09/08 07:41:30;;;;;;;20.90;11.57;;;;;;;26.90;47.50;101803.50;4992932;28;20637;-34
2023/09/08 07:43:56;;;;;;;22.13;11.82;;;;;;;26.90;47.09;101803.50;4990944;28;20050;-34
2023/09/08 07:46:23;;;;;;;22.13;12.52;;;;;;;26.90;47.57;101808.94;4987661;28;20057;-34
2023/09/08 07:48:50;;;;;;;20.25;11.15;;;;;;;26.90;47.22;101801.59;4988653;28;20049;-34
2023/09/08 07:51:17;;;;;;;15.55;10.07;;;;;;;26.89;47.14;101805.34;4988591;28;20059;-34
2023/09/08 07:53:43;;;;;;;20.55;12.70;;;;;;;26.88;47.70;101798.22;4984366;28;20650;-34
2023/09/08 07:56:10;;;;;;;17.60;12.60;;;;;;;26.86;47.44;101797.56;4984695;28;20499;-34
2023/09/08 07:58:38;;;;;;;17.65;12.38;;;;;;;26.83;47.69;101793.34;4986775;28;20055;-34
2023/09/08 08:01:05;;;;;;;14.40;11.10;;;;;;;26.80;47.52;101801.88;4988039;28;20108;-35
2023/09/08 08:03:32;;;;;;;18.08;10.93;;;;;;;26.77;47.61;101802.25;4986281;28;20050;-34
2023/09/08 08:05:59;;;;;;;17.48;10.60;;;;;;;26.76;47.71;101811.44;4987912;28;20132;-34
2023/09/08 08:08:25;;;;;;;15.80;10.35;;;;;;;26.74;47.74;101801.81;4987060;28;20081;-34
2023/09/08 08:10:52;;;;;;;13.88;10.50;;;;;;;26.72;47.71;101798.41;4985804;28;20430;-34
2023/09/08 08:13:19;;;;;;;14.10;9.77;;;;;;;26.71;47.60;101794.03;4987687;28;20170;-34
2023/09/08 08:15:47;;;;;;;16.58;11.30;;;;;;;26.69;48.14;101796.91;4986077;28;20126;-34
2023/09/08 08:18:14;;;;;;;16.70;10.20;;;;;;;26.68;48.25;101792.50;4984171;28;20046;-34
2023/09/08 08:20:40;;;;;;;16.17;9.80;;;;;;;26.68;47.88;101791.66;4982067;28;20734;-34
2023/09/08 08:23:07;;;;;;;15.30;9.65;;;;;;;26.67;48.26;101784.56;4984007;28;20452;-34
2023/09/08 08:25:34;;;;;;;14.05;10.35;;;;;;;26.67;48.33;101793.53;4979005;28;20065;-34
2023/09/08 08:28:01;;;;;;;14.10;9.25;;;;;;;26.68;48.50;101791.66;4985729;28;20077;-34
2023/09/08 08:30:28;;;;;;;18.85;9.80;;;;;;;26.68;48.57;101791.66;4983061;28;20050;-34
2023/09/08 08:32:55;;;;;;;16.80;10.73;;;;;;;26.66;48.25;101783.72;4983305;28;20058;-35
2023/09/08 08:35:22;;;;;;;13.38;9.60;;;;;;;26.69;48.78;101790.63;4984503;28;20053;-35
2023/09/08 08:37:48;;;;;;;19.45;13.25;;;;;;;26.70;48.51;101792.34;4983905;28;20458;-34
2023/09/08 08:40:15;;;;;;;18.05;11.75;;;;;;;26.71;48.76;101789.41;4981492;28;20469;-34
2023/09/08 08:42:42;;;;;;;17.30;11.45;;;;;;;26.72;48.46;101782.09;4985141;28;20137;-34
2023/09/08 08:45:10;;;;;;;17.65;10.93;;;;;;;26.73;48.74;101778.34;4983274;28;20101;-36
2023/09/08 08:47:37;;;;;;;15.27;10.35;;;;;;;26.75;48.90;101781.72;5013539;28;20057;-36
2023/09/08 08:50:04;;;;;;;18.55;11.13;;;;;;;26.75;48.74;101785.28;4984734;28;20073;-36
2023/09/08 08:52:31;;;;;;;17.13;12.00;;;;;;;26.78;48.83;101792.25;4984138;28;20089;-35
2023/09/08 08:55:00;;;;;;;18.77;11.52;;;;;;;26.80;48.67;101792.88;4980250;28;20152;-36
2023/09/08 08:57:27;;;;;;;20.80;14.18;;;;;;;26.82;48.76;101796.28;4982835;28;20190;-35
2023/09/08 08:59:54;;;;;;;20.48;13.05;;;;;;;26.83;48.69;101797.94;4979765;28;20057;-35
2023/09/08 09:02:22;;;;;;;19.67;11.85;;;;;;;26.86;48.53;101799.47;4982685;28;20103;-35
2023/09/08 09:04:49;;;;;;;15.75;10.32;;;;;;;26.88;48.54;101795.50;4985167;28;20089;-35
2023/09/08 09:07:18;;;;;;;48.35;11.88;;;;;;;26.89;48.86;101797.19;4986519;28;20434;-36
2023/09/08 09:09:46;;;;;;;15.77;10.82;;;;;;;26.91;48.65;101797.84;4983677;28;20129;-36
2023/09/08 09:12:12;;;;;;;17.27;10.73;;;;;;;26.93;48.63;101794.91;4981518;28;20065;-35
2023/09/08 09:14:45;;;;;;;11.85;8.98;;;;;;;26.95;48.60;101796.44;4986595;28;20054;-35
2023/09/08 09:17:14;;;;;;;17.52;9.15;;;;;;;26.98;48.26;101798.78;4985009;28;20181;-36
2023/09/08 09:19:41;;;;;;;11.73;8.23;;;;;;;26.99;48.21;101800.47;4982836;28;20130;-36
2023/09/08 09:22:08;;;;;;;14.05;9.52;;;;;;;27.01;48.43;101800.25;4980102;28;20050;-36
2023/09/08 09:24:40;;;;;;;12.13;8.32;;;;;;;27.03;48.33;101804.47;4980649;28;20055;-35
2023/09/08 09:27:08;;;;;;;;;;;;;;;27.05;48.56;101807.00;4987904;28;20056;-36
2023/09/08 09:29:46;;;;;;;11.15;7.53;;;;;;;27.08;48.55;101802.03;4983873;28;19922;-36
2023/09/08 09:32:13;;;;;;;14.00;7.43;;;;;;;27.13;48.52;101808.81;4985961;28;20058;-36
2023/09/08 09:34:53;;;;;;;11.18;7.18;;;;;;;27.14;48.36;101805.91;4987631;28;20046;-36
2023/09/08 09:37:20;;;;;;;10.95;7.05;;;;;;;27.20;48.71;101809.75;4984608;28;20093;-36
2023/09/08 09:39:51;;;;;;;11.82;7.18;;;;;;;27.22;48.27;101810.41;4984966;28;20407;-36
2023/09/08 09:42:19;;;;;;;10.50;6.78;;;;;;;27.27;48.69;101808.78;5012816;28;20485;-36
2023/09/08 09:44:51;;;;;;;10.63;7.93;;;;;;;27.31;48.87;101806.53;4980562;28;20124;-36
2023/09/08 09:47:20;;;;;;;10.13;6.70;;;;;;;27.36;48.16;101801.34;4985664;28;20129;-36
2023/09/08 09:49:47;;;;;;;9.25;6.47;;;;;;;27.41;48.48;101798.88;4985129;28;20051;-36
2023/09/08 09:52:25;;;;;;;10.18;6.03;;;;;;;27.47;47.87;101802.72;4986412;28;20060;-35
2023/09/08 09:54:54;;;;;;;8.70;6.47;;;;;;;27.52;48.39;101797.53;4983477;28;20053;-35
2023/09/08 09:57:22;;;;;;;11.77;6.53;;;;;;;27.57;48.10;101800.50;4986300;28;20042;-36
2023/09/08 09:59:50;;;;;;;8.32;6.00;;;;;;;27.62;48.30;101794.47;4984181;28;20046;-36
2023/09/08 10:02:21;;;;;;;9.98;6.18;;;;;;;27.67;48.53;101792.03;5016359;28;20367;-36
2023/09/08 10:04:49;;;;;;;7.35;5.65;;;;;;;27.72;48.19;101784.94;4983570;28;20053;-36
2023/09/08 10:07:17;;;;;;;8.90;6.18;;;;;;;27.77;48.29;101787.94;4986611;28;20046;-36
2023/09/08 10:09:44;;;;;;;9.80;5.53;;;;;;;27.82;47.70;101783.78;4985518;28;20096;-36
2023/09/08 10:12:15;;;;;;;8.65;5.97;;;;;;;27.88;48.01;101783.03;4983139;28;20348;-36
2023/09/08 10:14:43;;;;;;;11.65;6.20;;;;;;;27.92;47.79;101781.59;4982299;28;20406;-36
2023/09/08 10:17:17;;;;;;;11.00;5.43;;;;;;;27.97;48.66;101787.28;4982058;28;20342;-36
2023/09/08 10:19:48;;;;;;;7.75;5.05;;;;;;;28.00;47.97;101787.72;4985149;28;20050;-36
2023/09/08 10:22:20;;;;;;;9.93;5.30;;;;;;;28.04;48.35;101788.19;4984987;28;20054;-36
2023/09/08 10:24:49;;;;;;;9.85;5.57;;;;;;;28.09;47.79;101791.16;4982201;28;20050;-35
2023/09/08 10:27:20;;;;;;;9.45;5.20;;;;;;;28.13;47.30;101789.72;4980966;28;20053;-36
2023/09/08 10:29:48;;;;;;;8.63;5.05;;;;;;;28.18;47.58;101791.84;4982829;28;20054;-36
2023/09/08 10:32:17;;;;;;;9.00;5.57;;;;;;;28.22;47.52;101795.84;4985690;28;20128;-36
2023/09/08 10:34:46;;;;;;;7.60;5.50;;;;;;;28.26;47.77;101795.28;4984170;28;20046;-36
2023/09/08 10:37:27;;;;;;;5.47;4.20;;;;;;;28.29;47.67;101792.13;4986038;28;20054;-36
2023/09/08 10:39:54;;;;;;;7.50;4.80;;;;;;;28.33;47.32;101789.00;4983053;28;20404;-36
2023/09/08 10:42:25;;;;;;;10.48;5.35;;;;;;;28.36;47.05;101792.22;4986588;28;20046;-36
2023/09/08 10:45:04;;;;;;;7.60;4.50;;;;;;;28.39;47.12;101793.72;4987444;28;20050;-36
2023/09/08 10:47:34;;;;;;;7.88;5.10;;;;;;;28.43;47.51;101787.66;4990970;28;20046;-36
2023/09/08 10:50:01;;;;;;;9.25;4.80;;;;;;;28.46;47.02;101786.41;4986391;28;20443;-36
2023/09/08 10:52:28;;;;;;;6.90;4.30;;;;;;;28.48;47.10;101785.16;4988582;28;20112;-36
2023/09/08 10:54:55;;;;;;;9.05;4.57;;;;;;;28.51;47.36;101779.31;5015972;28;20047;-36
2023/09/08 10:57:24;;;;;;;7.05;4.22;;;;;;;28.53;47.56;101785.41;4984941;28;20047;-36
2023/09/08 10:59:55;;;;;;;6.82;4.47;;;;;;;28.57;46.82;101787.72;4987398;28;20054;-36
2023/09/08 11:02:41;;;;;;;5.95;4.38;;;;;;;28.58;47.61;101784.78;4987219;28;20082;-36
2023/09/08 11:05:11;;;;;;;7.85;4.30;;;;;;;28.61;47.27;101783.56;4983805;28;20439;-36
2023/09/08 11:07:38;;;;;;;5.45;4.18;;;;;;;28.60;47.08;101780.00;4985227;28;20114;-36
2023/09/08 11:10:06;;;;;;;4.78;4.13;;;;;;;28.59;47.39;101778.31;4986789;28;20397;-37
2023/09/08 11:12:34;;;;;;;5.43;4.43;;;;;;;28.60;47.56;101787.34;4989654;28;20495;-37
2023/09/08 11:15:07;;;;;;;5.95;4.28;;;;;;;28.57;47.26;101780.38;4989917;28;20058;-36
2023/09/08 11:17:39;;;;;;;11.10;4.18;;;;;;;28.57;47.53;101788.56;4990393;28;20430;-36
2023/09/08 11:20:10;;;;;;;6.03;4.07;;;;;;;28.57;47.41;101785.84;4995531;28;20058;-36
2023/09/08 11:22:40;;;;;;;5.13;4.13;;;;;;;28.56;47.00;101788.78;4990565;28;20345;-36